Time;durP1;ratioP1;P1;durP2;ratioP2;P2;SDS_P1;SDS_P2;PMS_P1;PMS_P2;Temp;Humidity;BMP_temperature;BMP_pressure;BME280_temperature;BME280_humidity;BME280_pressure;Samples;Min_cycle;Max_cycle;Signal;HPM_P1;HPM_P2
2022/07/21 00:01:12;;;;;;;;;;;;;;;21.12;73.88;101746.72;5074365;28;19959;-36
2022/07/21 00:03:38;;;;;;;;;;;;;;;21.10;74.56;101754.44;5075247;28;19912;-36
2022/07/21 00:06:03;;;;;;;;;;;;;;;21.07;76.58;101750.31;5074258;28;20319;-36
2022/07/21 00:08:28;;;;;;;;;;;;;;;21.03;75.40;101737.41;5074341;28;20296;-36
2022/07/21 00:10:53;;;;;;;;;;;;;;;21.01;75.13;101736.88;5072985;28;19912;-36
2022/07/21 00:13:19;;;;;;;;;;;;;;;21.00;73.28;101733.28;5074406;28;19912;-36
2022/07/21 00:15:44;;;;;;;;;;;;;;;20.97;75.30;101733.03;5073995;28;19913;-36
2022/07/21 00:18:10;;;;;;;;;;;;;;;20.97;76.31;101746.78;5074197;28;19924;-36
2022/07/21 00:20:35;;;;;;;;;;;;;;;20.91;75.83;101754.22;5074053;28;20008;-36
2022/07/21 00:23:00;;;;;;;;;;;;;;;20.88;74.98;101756.69;5074439;28;19919;-36
2022/07/21 00:25:26;;;;;;;;;;;;;;;20.87;75.50;101749.53;5074196;28;19913;-36
2022/07/21 00:27:51;;;;;;;;;;;;;;;20.87;74.31;101746.78;5074126;28;19920;-36
2022/07/21 00:30:16;;;;;;;;;;;;;;;20.84;74.64;101750.94;5074282;28;19920;-36
2022/07/21 00:32:42;;;;;;;;;;;;;;;20.80;77.14;101750.66;5074074;28;19916;-36
2022/07/21 00:35:09;;;;;;;;;;;;;;;20.75;75.05;101747.94;5073810;28;19916;-36
2022/07/21 00:37:34;;;;;;;;;;;;;;;20.82;73.87;101748.44;5074278;28;19917;-36
2022/07/21 00:40:00;;;;;;;;;;;;;;;20.86;73.24;101745.16;5073818;28;19924;-37
2022/07/21 00:42:27;;;;;;;;;;;;;;;20.86;74.42;101758.91;5073496;28;19912;-36
2022/07/21 00:44:52;;;;;;;;;;;;;;;20.85;73.45;101751.75;5073505;28;20377;-36
2022/07/21 00:47:25;;;;;;;;;;;;;;;20.86;73.96;101754.22;5074544;28;19952;-36
2022/07/21 00:49:50;;;;;;;;;;;;;;;20.81;74.80;101751.47;5073642;28;19917;-36
2022/07/21 00:52:16;;;;;;;;;;;;;;;20.76;74.55;101738.56;5074185;28;19966;-36
2022/07/21 00:54:41;;;;;;;;;;;;;;;20.74;73.69;101743.53;5073897;28;19917;-36
2022/07/21 00:57:07;;;;;;;;;;;;;;;20.72;74.43;101742.16;5074299;28;19981;-36
2022/07/21 00:59:32;;;;;;;;;;;;;;;20.66;75.51;101743.25;5073542;28;19965;-36
2022/07/21 01:01:57;;;;;;;;;;;;;;;20.62;74.43;101739.41;5074396;28;19913;-36
2022/07/21 01:04:23;;;;;;;;;;;;;;;20.58;75.17;101739.97;5073536;28;20257;-36
2022/07/21 01:06:48;;;;;;;;;;;;;;;20.58;73.81;101739.97;5073533;28;19913;-36
2022/07/21 01:09:13;;;;;;;;;;;;;;;20.57;76.12;101735.56;5073678;28;19955;-36
2022/07/21 01:11:39;;;;;;;;;;;;;;;20.57;74.24;101732.81;5073396;28;19965;-36
2022/07/21 01:14:04;;;;;;;;;;;;;;;20.57;77.25;101730.06;5073270;28;19938;-36
2022/07/21 01:16:30;;;;;;;;;;;;;;;20.52;75.96;101726.50;5073323;28;19930;-36
2022/07/21 01:18:55;;;;;;;;;;;;;;;20.46;75.05;101717.44;5072135;28;19995;-36
2022/07/21 01:21:31;;;;;;;;;;;;;;;20.37;77.12;101718.25;5073544;28;20008;-36
2022/07/21 01:23:57;;;;;;;;;;;;;;;20.30;76.27;101719.38;5073397;28;19967;-36
2022/07/21 01:26:22;;;;;;;;;;;;;;;20.27;77.47;101719.09;5073830;28;19913;-36
2022/07/21 01:28:47;;;;;;;;;;;;;;;20.26;76.06;101721.00;5073444;28;20007;-36
2022/07/21 01:31:12;;;;;;;;;;;;;;;20.28;75.61;101724.28;5073497;28;19959;-36
2022/07/21 01:33:38;;;;;;;;;;;;;;;20.25;78.73;101718.53;5073258;28;20026;-36
2022/07/21 01:36:03;;;;;;;;;;;;;;;20.17;79.28;101719.09;5073151;28;20381;-36
2022/07/21 01:41:32;;;;;;;;;;;;;;;20.14;76.63;101727.88;5073167;28;19974;-36
2022/07/21 01:43:59;;;;;;;;;;;;;;;20.09;79.58;101728.69;5073191;28;20328;-37
2022/07/21 01:46:24;;;;;;;;;;;;;;;20.00;78.50;101722.06;5073791;28;19919;-36
2022/07/21 01:48:50;;;;;;;;;;;;;;;19.96;78.14;101712.75;5073150;28;20010;-36
2022/07/21 01:51:15;;;;;;;;;;;;;;;19.95;78.87;101713.84;5073717;28;19920;-36
2022/07/21 01:53:40;;;;;;;;;;;;;;;19.90;82.55;101728.38;5072732;28;20386;-36
2022/07/21 01:56:06;;;;;;;;;;;;;;;19.89;78.32;101713.00;5072989;28;19924;-36
2022/07/21 01:58:31;;;;;;;;;;;;;;;19.92;77.11;101707.00;5072750;28;20357;-36
2022/07/21 02:00:57;;;;;;;;;;;;;;;19.95;78.30;101724.81;5073195;28;20311;-36
2022/07/21 02:03:22;;;;;;;;;;;;;;;19.95;78.12;101728.38;5072844;28;20022;-36
2022/07/21 02:05:47;;;;;;;;;;;;;;;19.97;78.78;101725.38;5072563;28;19913;-36
2022/07/21 02:08:12;;;;;;;;;;;;;;;19.93;82.17;101721.53;5073406;28;19916;-36
2022/07/21 02:10:38;;;;;;;;;;;;;;;19.94;78.79;101731.41;5072761;28;19992;-36
2022/07/21 02:13:03;;;;;;;;;;;;;;;19.91;81.39;101730.06;5073124;28;19965;-36
2022/07/21 02:15:29;;;;;;;;;;;;;;;19.88;79.50;101727.00;5072739;28;20261;-36
2022/07/21 02:17:54;;;;;;;;;;;;;;;19.89;79.37;101725.91;5073435;28;19954;-36
2022/07/21 02:20:19;;;;;;;;;;;;;;;19.87;82.47;101714.41;5073016;28;19916;-36
2022/07/21 02:22:45;;;;;;;;;;;;;;;19.80;82.58;101717.38;5072431;28;19919;-36
2022/07/21 02:25:10;;;;;;;;;;;;;;;19.83;81.76;101724.25;5071375;28;19913;-36
2022/07/21 02:27:36;;;;;;;;;;;;;;;19.83;81.93;101721.53;5072653;28;19919;-36
2022/07/21 02:30:01;;;;;;;;;;;;;;;19.83;80.12;101710.53;5074593;28;20015;-36
2022/07/21 02:32:26;;;;;;;;;;;;;;;19.85;80.54;101711.91;5076543;28;19970;-36
2022/07/21 02:34:51;;;;;;;;;;;;;;;19.87;80.58;101714.41;5076956;28;19948;-36
2022/07/21 02:37:16;;;;;;;;;;;;;;;19.81;82.44;101716.28;5076072;28;19919;-36
2022/07/21 02:39:43;;;;;;;;;;;;;;;19.82;82.08;101706.16;5076056;28;19912;-36
2022/07/21 02:42:08;;;;;;;;;;;;;;;19.82;80.57;101703.41;5076863;28;20018;-36
2022/07/21 02:44:33;;;;;;;;;;;;;;;19.83;81.44;101703.13;5076705;28;19959;-36
2022/07/21 02:46:58;;;;;;;;;;;;;;;19.79;81.47;101711.06;5076754;28;19995;-36
2022/07/21 02:49:24;;;;;;;;;;;;;;;19.80;81.57;101707.22;5075572;28;20402;-36
2022/07/21 02:51:49;;;;;;;;;;;;;;;19.77;82.01;101701.47;5076092;28;19958;-36
2022/07/21 02:54:14;;;;;;;;;;;;;;;19.74;82.71;101716.56;5076133;28;19963;-36
2022/07/21 02:56:39;;;;;;;;;;;;;;;19.74;83.10;101699.28;5076275;28;19913;-36
2022/07/21 02:59:04;;;;;;;;;;;;;;;19.72;84.04;101687.75;5075719;28;20353;-36
2022/07/21 03:01:30;;;;;;;;;;;;;;;19.69;83.25;101680.88;5076020;28;19912;-36
2022/07/21 03:03:55;;;;;;;;;;;;;;;19.66;83.08;101683.34;5075852;28;20341;-36
2022/07/21 03:06:20;;;;;;;;;;;;;;;19.66;82.76;101689.63;5076144;28;20313;-36
2022/07/21 03:08:45;;;;;;;;;;;;;;;19.68;80.84;101697.63;5075515;28;19912;-36
2022/07/21 03:11:11;;;;;;;;;;;;;;;19.70;82.89;101698.97;5075803;28;19913;-36
2022/07/21 03:13:36;;;;;;;;;;;;;;;19.67;81.64;101693.22;5075249;28;19913;-36
2022/07/21 03:16:01;;;;;;;;;;;;;;;19.67;82.06;101694.06;5075494;28;20007;-36
2022/07/21 03:18:26;;;;;;;;;;;;;;;19.67;81.59;101694.06;5075853;28;19982;-36
2022/07/21 03:20:51;;;;;;;;;;;;;;;19.66;81.84;101692.38;5075488;28;19920;-36
2022/07/21 03:23:17;;;;;;;;;;;;;;;19.68;81.73;101690.22;5075287;28;19982;-36
2022/07/21 03:25:42;;;;;;;;;;;;;;;19.70;81.69;101692.66;5075493;28;19916;-36
2022/07/21 03:28:07;;;;;;;;;;;;;;;19.71;81.93;101688.81;5075450;28;20318;-36
2022/07/21 03:30:33;;;;;;;;;;;;;;;19.66;84.28;101697.88;5075165;28;19920;-36
2022/07/21 03:32:58;;;;;;;;;;;;;;;19.62;81.21;101699.53;5075355;28;19912;-36
2022/07/21 03:35:24;;;;;;;;;;;;;;;19.61;85.24;101699.78;5075040;28;20371;-36
2022/07/21 03:37:53;;;;;;;;;;;;;;;19.57;83.31;101704.97;5074933;28;19916;-36
2022/07/21 03:40:22;;;;;;;;;;;;;;;19.58;82.50;101701.13;5074269;28;20018;-36
2022/07/21 03:42:48;;;;;;;;;;;;;;;19.60;84.22;101698.97;5074448;28;19999;-36
2022/07/21 03:45:13;;;;;;;;;;;;;;;19.63;84.46;101695.69;5074617;28;20003;-36
2022/07/21 03:47:38;;;;;;;;;;;;;;;19.66;82.61;101697.88;5075013;28;19919;-36
2022/07/21 03:50:04;;;;;;;;;;;;;;;19.65;82.85;101701.72;5075473;28;19923;-36
2022/07/21 03:52:30;;;;;;;;;;;;;;;19.65;84.19;101704.47;5074665;28;19961;-36
2022/07/21 03:55:07;;;;;;;;;;;;;;;19.62;83.53;101707.75;5074455;28;19916;-36
2022/07/21 03:57:44;;;;;;;;;;;;;;;19.60;83.26;101707.19;5075375;28;20011;-36
2022/07/21 04:00:11;;;;;;;;;;;;;;;19.62;82.09;101715.13;5074836;28;20284;-36
2022/07/21 04:02:37;;;;;;;;;;;;;;;19.64;81.32;101713.78;5074607;28;19927;-36
2022/07/21 04:05:03;;;;;;;;;;;;;;;19.68;81.22;101722.31;5074429;28;19917;-36
2022/07/21 04:07:28;;;;;;;;;;;;;;;19.69;80.68;101715.72;5074956;28;20268;-36
2022/07/21 04:09:53;;;;;;;;;;;;;;;19.70;81.01;101711.88;5074347;28;19920;-36
2022/07/21 04:12:18;;;;;;;;;;;;;;;19.71;79.97;101710.78;5074850;28;19923;-36
2022/07/21 04:14:44;;;;;;;;;;;;;;;19.71;81.28;101719.81;5074801;28;19913;-36
2022/07/21 04:17:09;;;;;;;;;;;;;;;19.71;81.98;101714.34;5074405;28;19916;-36
2022/07/21 04:19:34;;;;;;;;;;;;;;;19.69;82.29;101713.81;5073859;28;20327;-36
2022/07/21 04:21:59;;;;;;;;;;;;;;;19.66;82.77;101711.59;5073810;28;20410;-36
2022/07/21 04:24:24;;;;;;;;;;;;;;;19.61;83.39;101706.09;5074013;28;19916;-36
2022/07/21 04:26:50;;;;;;;;;;;;;;;19.60;82.01;101715.41;5074808;28;20353;-36
2022/07/21 04:29:15;;;;;;;;;;;;;;;19.58;83.62;101716.78;5073701;28;20409;-36
2022/07/21 04:31:40;;;;;;;;;;;;;;;19.55;83.64;101709.88;5074222;28;20387;-36
2022/07/21 04:34:05;;;;;;;;;;;;;;;19.53;82.12;101701.13;5074163;28;19951;-36
2022/07/21 04:36:31;;;;;;;;;;;;;;;19.58;81.56;101703.06;5074130;28;19913;-36
2022/07/21 04:38:56;;;;;;;;;;;;;;;19.59;84.53;101704.69;5073694;28;19961;-36
2022/07/21 04:41:21;;;;;;;;;;;;;;;19.57;84.95;101704.97;5074014;28;19912;-36
2022/07/21 04:43:46;;;;;;;;;;;;;;;19.55;82.79;101704.41;5073898;28;20364;-36
2022/07/21 04:46:11;;;;;;;;;;;;;;;19.56;85.20;101708.78;5073728;28;19913;-35
2022/07/21 04:48:37;;;;;;;;;;;;;;;19.53;85.38;101712.91;5073566;28;19912;-35
2022/07/21 04:51:02;;;;;;;;;;;;;;;19.50;85.06;101704.38;5073848;28;19970;-35
2022/07/21 04:53:27;;;;;;;;;;;;;;;19.50;84.59;101713.44;5073534;28;19917;-35
2022/07/21 04:55:52;;;;;;;;;;;;;;;19.50;83.95;101713.44;5073589;28;19946;-35
2022/07/21 04:58:18;;;;;;;;;;;;;;;19.50;84.76;101721.66;5073412;28;20053;-35
2022/07/21 05:00:43;;;;;;;;;;;;;;;19.52;84.03;101718.66;5073426;28;19913;-35
2022/07/21 05:03:08;;;;;;;;;;;;;;;19.54;84.20;101720.03;5073328;28;19920;-35
2022/07/21 05:05:33;;;;;;;;;;;;;;;19.55;83.80;101720.88;5073687;28;19973;-36
2022/07/21 05:07:59;;;;;;;;;;;;;;;19.50;82.78;101716.19;5073108;28;20292;-36
2022/07/21 05:10:24;;;;;;;;;;;;;;;19.58;82.15;101728.56;5073030;28;20041;-36
2022/07/21 05:12:49;;;;;;;;;;;;;;;19.60;84.01;101715.41;5073266;28;19917;-36
2022/07/21 05:15:15;;;;;;;;;;;;;;;19.61;82.35;101716.25;5073212;28;20329;-36
2022/07/21 05:17:40;;;;;;;;;;;;;;;19.63;81.65;101709.41;5073669;28;20398;-36
2022/07/21 05:20:06;;;;;;;;;;;;;;;19.61;82.87;101711.56;5073256;28;19912;-36
2022/07/21 05:22:31;;;;;;;;;;;;;;;19.61;83.38;101717.06;5073722;28;19913;-36
2022/07/21 05:24:56;;;;;;;;;;;;;;;19.61;82.41;101706.09;5073074;28;19934;-36
2022/07/21 05:27:22;;;;;;;;;;;;;;;19.64;83.87;101704.75;5073647;28;20407;-36
2022/07/21 05:29:47;;;;;;;;;;;;;;;19.66;83.41;101710.75;5072841;28;19976;-36
2022/07/21 05:32:12;;;;;;;;;;;;;;;19.66;83.00;101699.78;5072823;28;19955;-36
2022/07/21 05:34:37;;;;;;;;;;;;;;;19.66;83.86;101708.03;5073048;28;20004;-36
2022/07/21 05:37:03;;;;;;;;;;;;;;;19.65;82.55;101707.19;5073568;28;20074;-36
2022/07/21 05:39:28;;;;;;;;;;;;;;;19.68;81.93;101706.66;5073307;28;19957;-36
2022/07/21 05:41:54;;;;;;;;;;;;;;;19.64;85.86;101711.03;5073573;28;20011;-36
2022/07/21 05:44:19;;;;;;;;;;;;;;;19.59;84.62;101710.19;5072633;28;19912;-36
2022/07/21 05:46:44;;;;;;;;;;;;;;;19.56;83.52;101706.88;5072987;28;19995;-36
2022/07/21 05:49:10;;;;;;;;;;;;;;;19.59;84.40;101707.44;5073603;28;20034;-36
2022/07/21 05:51:35;;;;;;;;;;;;;;;19.59;83.58;101705.50;5073116;28;20357;-36
2022/07/21 05:54:00;;;;;;;;;;;;;;;19.62;83.57;101704.16;5072617;28;19928;-36
2022/07/21 05:56:25;;;;;;;;;;;;;;;19.65;85.19;101707.19;5073624;28;20332;-36
2022/07/21 05:58:51;;;;;;;;;;;;;;;19.64;83.76;101704.75;5073473;28;19919;-36
2022/07/21 06:01:16;;;;;;;;;;;;;;;19.62;85.67;101699.53;5073100;28;19920;-36
2022/07/21 06:03:43;;;;;;;;;;;;;;;19.63;84.26;101698.44;5072815;28;19912;-36
2022/07/21 06:06:09;;;;;;;;;;;;;;;19.63;84.39;101698.44;5076517;28;20356;-36
2022/07/21 06:08:37;;;;;;;;;;;;;;;19.63;85.21;101703.09;5076954;28;19912;-36
2022/07/21 06:11:02;;;;;;;;;;;;;;;19.66;84.46;101700.63;5076417;28;19948;-35
2022/07/21 06:13:27;;;;;;;;;;;;;;;19.68;84.73;101703.94;5075094;28;19912;-35
2022/07/21 06:15:52;;;;;;;;;;;;;;;19.72;85.11;101696.81;5076590;28;19962;-35
2022/07/21 06:18:18;;;;;;;;;;;;;;;19.76;85.27;101700.66;5076355;28;19916;-36
2022/07/21 06:20:43;;;;;;;;;;;;;;;19.80;85.66;101698.19;5076852;28;19912;-35
2022/07/21 06:23:08;;;;;;;;;;;;;;;19.86;84.82;101697.06;5076197;28;19913;-36
2022/07/21 06:25:33;;;;;;;;;;;;;;;19.91;84.52;101699.84;5076429;28;20011;-36
2022/07/21 06:27:59;;;;;;;;;;;;;;;19.99;85.07;101691.06;5076331;28;19920;-36
2022/07/21 06:30:24;;;;;;;;;;;;;;;20.01;85.44;101699.03;5075897;28;20311;-36
2022/07/21 06:32:49;;;;;;;;;;;;;;;20.03;84.52;101700.41;5076383;28;19966;-36
2022/07/21 06:35:14;;;;;;;;;;;;;;;20.13;84.71;101702.31;5076009;28;20367;-36
2022/07/21 06:37:44;;;;;;;;;;;;;;;20.28;84.04;101704.25;5076801;28;19912;-36
2022/07/21 06:40:09;;;;;;;;;;;;;;;20.44;83.61;101705.06;5076075;28;19919;-36
2022/07/21 06:42:34;;;;;;;;;;;;;;;20.56;83.85;101700.97;5076645;28;20268;-36
2022/07/21 06:45:00;;;;;;;;;;;;;;;20.60;83.51;101708.66;5075713;28;20269;-36
2022/07/21 06:47:25;;;;;;;;;;;;;;;20.64;83.29;101705.06;5075634;28;19912;-36
2022/07/21 06:49:50;;;;;;;;;;;;;;;20.67;83.39;101715.50;5075935;28;19963;-36
2022/07/21 06:52:15;;;;;;;;;;;;;;;20.71;82.40;101708.34;5075727;28;19970;-36
2022/07/21 06:54:40;;;;;;;;;;;;;;;20.75;82.15;101714.94;5075486;28;20011;-36
2022/07/21 06:57:06;;;;;;;;;;;;;;;20.78;81.90;101708.88;5076007;28;19923;-36
2022/07/21 06:59:31;;;;;;;;;;;;;;;20.83;82.28;101711.59;5075733;28;19912;-36
2022/07/21 07:01:58;;;;;;;;;;;;;;;20.88;81.59;101719.03;5075855;28;19912;-36
2022/07/21 07:04:24;;;;;;;;;;;;;;;20.90;82.00;101716.84;5075600;28;19912;-36
2022/07/21 07:06:51;;;;;;;;;;;;;;;20.96;80.70;101721.22;5075454;28;19923;-36
2022/07/21 07:09:17;;;;;;;;;;;;;;;20.98;80.95;101724.47;5075435;28;19916;-36
2022/07/21 07:11:42;;;;;;;;;;;;;;;21.03;80.98;101727.25;5075712;28;19923;-36
2022/07/21 07:14:07;;;;;;;;;;;;;;;21.03;81.18;101716.25;5075466;28;20315;-36
2022/07/21 07:16:33;;;;;;;;;;;;;;;20.99;80.71;101715.16;5074168;28;19912;-36
2022/07/21 07:18:58;;;;;;;;;;;;;;;20.99;80.98;101725.34;5075213;28;19964;-36
2022/07/21 07:21:23;;;;;;;;;;;;;;;20.97;81.71;101727.53;5075823;28;19934;-36
2022/07/21 07:23:48;;;;;;;;;;;;;;;20.96;81.83;101720.38;5074976;28;19916;-36
2022/07/21 07:26:14;;;;;;;;;;;;;;;20.97;81.14;101725.59;5075445;28;19916;-36
2022/07/21 07:28:39;;;;;;;;;;;;;;;20.89;81.59;101723.44;5075222;28;19920;-36
2022/07/21 07:31:04;;;;;;;;;;;;;;;20.87;81.47;101725.63;5075462;28;19913;-36
2022/07/21 07:33:29;;;;;;;;;;;;;;;20.81;81.51;101726.75;5074774;28;19912;-36
2022/07/21 07:35:56;;;;;;;;;;;;;;;20.76;81.58;101719.34;5074818;28;19920;-36
2022/07/21 07:38:21;;;;;;;;;;;;;;;20.72;81.62;101720.97;5074932;28;20334;-36
2022/07/21 07:40:46;;;;;;;;;;;;;;;20.66;81.99;101721.28;5075054;28;19912;-36
2022/07/21 07:43:11;;;;;;;;;;;;;;;20.60;81.89;101728.72;5074871;28;20375;-36
2022/07/21 07:45:37;;;;;;;;;;;;;;;20.54;82.23;101733.38;5075589;28;20256;-36
2022/07/21 07:48:03;;;;;;;;;;;;;;;20.46;82.19;101722.09;5074631;28;19916;-36
2022/07/21 07:50:30;;;;;;;;;;;;;;;20.43;82.19;101728.97;5074784;28;20246;-36
2022/07/21 07:52:56;;;;;;;;;;;;;;;20.43;82.27;101731.69;5075100;28;19916;-36
2022/07/21 07:55:21;;;;;;;;;;;;;;;20.45;81.93;101732.28;5074764;28;19912;-37
2022/07/21 07:57:46;;;;;;;;;;;;;;;20.43;84.02;101733.63;5074595;28;19920;-36
2022/07/21 08:00:14;;;;;;;;;;;;;;;20.39;85.02;101733.34;5074731;28;19916;-37
2022/07/21 08:02:39;;;;;;;;;;;;;;;20.30;85.63;101735.84;5074219;28;20418;-36
2022/07/21 08:05:04;;;;;;;;;;;;;;;20.19;85.66;101738.84;5074327;28;19916;-35
2022/07/21 08:07:30;;;;;;;;;;;;;;;20.12;86.63;101738.31;5074902;28;19965;-37
2022/07/21 08:09:55;;;;;;;;;;;;;;;19.97;86.91;101742.69;5074642;28;19913;-37
2022/07/21 08:12:20;;;;;;;;;;;;;;;19.85;88.84;101744.00;5074803;28;19920;-36
2022/07/21 08:14:45;;;;;;;;;;;;;;;19.74;88.73;101746.75;5074726;28;19923;-37
2022/07/21 08:17:11;;;;;;;;;;;;;;;19.63;90.75;101747.00;5074035;28;19912;-37
2022/07/21 08:19:36;;;;;;;;;;;;;;;19.57;87.98;101746.13;5074276;28;19918;-36
2022/07/21 08:22:01;;;;;;;;;;;;;;;19.56;88.89;101741.72;5074583;28;20302;-37
2022/07/21 08:24:27;;;;;;;;;;;;;;;19.52;90.88;101746.09;5074112;28;19959;-36
2022/07/21 08:26:52;;;;;;;;;;;;;;;19.48;91.14;101745.00;5073675;28;20023;-36
2022/07/21 08:29:17;;;;;;;;;;;;;;;19.40;92.60;101751.00;5074038;28;19920;-36
2022/07/21 08:31:42;;;;;;;;;;;;;;;19.38;90.46;101748.53;5074580;28;20057;-36
2022/07/21 08:34:08;;;;;;;;;;;;;;;19.40;91.96;101748.25;5074225;28;19938;-37
2022/07/21 08:36:33;;;;;;;;;;;;;;;19.39;92.11;101735.63;5074424;28;20225;-37
2022/07/21 08:38:58;;;;;;;;;;;;;;;19.36;93.36;101738.91;5073468;28;19958;-36
2022/07/21 08:41:24;;;;;;;;;;;;;;;19.35;92.14;101740.00;5074278;28;19956;-36
2022/07/21 08:43:49;;;;;;;;;;;;;;;19.34;94.15;101747.41;5073661;28;20007;-36
2022/07/21 08:46:15;;;;;;;;;;;;;;;19.34;93.55;101750.16;5074148;28;19912;-36
2022/07/21 08:48:41;;;;;;;;;;;;;;;19.36;92.86;101752.59;5073750;28;19912;-36
2022/07/21 08:51:07;;;;;;;;;;;;;;;19.39;94.28;101735.63;5073813;28;19912;-36
2022/07/21 08:53:32;;;;;;;;;;;;;;;19.42;93.54;101735.06;5073893;28;19916;-37
2022/07/21 08:55:57;;;;;;;;;;;;;;;19.47;94.16;101738.69;5073657;28;20395;-37
2022/07/21 08:58:22;;;;;;;;;;;;;;;19.44;94.85;101735.66;5073371;28;19986;-37
2022/07/21 09:00:49;;;;;;;;;;;;;;;19.45;93.40;101738.13;5073942;28;19955;-37
2022/07/21 09:03:14;;;;;;;;;;;;;;;19.48;94.16;101737.59;5073297;28;19956;-37
2022/07/21 09:05:40;;;;;;;;;;;;;;;19.50;93.79;101731.81;5073953;28;19920;-37
2022/07/21 09:08:05;;;;;;;;;;;;;;;19.52;94.79;101741.44;5074098;28;19912;-35
2022/07/21 09:10:32;;;;;;;;;;;;;;;19.51;95.64;101742.50;5073548;28;19916;-36
2022/07/21 09:12:59;;;;;;;;;;;;;;;19.55;95.10;101735.41;5073803;28;19912;-36
2022/07/21 09:15:25;;;;;;;;;;;;;;;19.55;96.06;101740.06;5073383;28;19938;-36
2022/07/21 09:18:07;;;;;;;;;;;;;;;19.56;93.83;101739.78;5074269;28;20256;-36
2022/07/21 09:20:32;;;;;;;;;;;;;;;19.60;95.63;101742.03;5073348;28;19924;-36
2022/07/21 09:23:01;;;;;;;;;;;;;;;19.62;93.63;101748.91;5073782;28;19913;-36
2022/07/21 09:25:37;;;;;;;;;;;;;;;19.66;94.06;101746.44;5076868;28;19920;-36
2022/07/21 09:28:06;;;;;;;;;;;;;;;19.67;93.46;101745.38;5093874;28;20360;-36
2022/07/21 09:30:47;;;;;;;;;;;;;;;19.73;92.96;101750.59;5093831;28;19966;-36
2022/07/21 09:33:23;;;;;;;;;;;;;;;19.80;93.41;101762.13;5094289;28;19923;-37
2022/07/21 09:35:55;;;;;;;;;;;;;;;19.84;93.44;101756.09;5093441;28;20244;-36
2022/07/21 09:38:20;;;;;;;;;;;;;;;19.87;93.96;101758.31;5093530;28;19961;-36
2022/07/21 09:40:46;;;;;;;;;;;;;;;19.84;91.66;101759.66;5097400;28;20010;-36
2022/07/21 09:43:27;;;;;;;;;;;;;;;19.83;92.43;101763.50;5098552;28;20049;-35
2022/07/21 09:45:53;;;;;;;;;;;;;;;19.78;95.13;101769.00;5098081;28;19912;-35
2022/07/21 09:48:31;;;;;;;;;;;;;;;19.73;93.11;101766.22;5098339;28;19912;-36
2022/07/21 09:50:57;;;;;;;;;;;;;;;19.70;94.60;101775.81;5097496;28;19911;-35
2022/07/21 09:53:22;;;;;;;;;;;;;;;19.67;93.47;101772.81;5097245;28;19930;-36
2022/07/21 09:55:47;;;;;;;;;;;;;;;19.60;94.73;101770.28;5097676;28;20030;-36
2022/07/21 09:58:14;;;;;;;;;;;;;;;19.60;92.87;101780.44;5097851;28;19916;-36
2022/07/21 10:00:39;;;;;;;;;;;;;;;19.62;93.77;101768.13;5097358;28;19912;-36
2022/07/21 10:03:04;;;;;;;;;;;;;;;19.66;92.39;101784.84;5097573;28;19928;-36
2022/07/21 10:05:30;;;;;;;;;;;;;;;19.65;93.38;101778.53;5097854;28;19955;-36
2022/07/21 10:07:55;;;;;;;;;;;;;;;19.66;92.84;101791.16;5097431;28;19961;-36
2022/07/21 10:10:20;;;;;;;;;;;;;;;19.69;91.60;101790.63;5097151;28;19955;-36
2022/07/21 10:12:46;;;;;;;;;;;;;;;19.71;92.18;101793.09;5097157;28;19919;-36
2022/07/21 10:15:12;;;;;;;;;;;;;;;19.68;92.38;101797.22;5096679;28;19934;-36
2022/07/21 10:17:38;;;;;;;;;;;;;;;19.67;92.77;101798.31;5097429;28;19966;-36
2022/07/21 10:20:18;;;;;;;;;;;;;;;19.63;92.62;101801.88;5096886;28;19915;-36
2022/07/21 10:22:58;;;;;;;;;;;;;;;19.59;93.32;101812.50;5096811;28;19916;-36
2022/07/21 10:25:24;;;;;;;;;;;;;;;19.55;92.64;101806.72;5096716;28;19934;-36
2022/07/21 10:28:09;;;;;;;;;;;;;;;19.52;91.56;101804.53;5096756;28;20427;-36
2022/07/21 10:30:38;;;;;;;;;;;;;;;19.47;92.67;101810.00;5082581;28;19944;-36
2022/07/21 10:33:04;;;;;;;;;;;;;;;19.45;91.98;101816.84;5096276;28;20011;-36
2022/07/21 10:35:30;;;;;;;;;;;;;;;19.42;91.66;101820.09;5096624;28;19912;-36
2022/07/21 10:37:55;;;;;;;;;;;;;;;19.39;94.32;101818.72;5096847;28;19991;-36
2022/07/21 10:40:21;;;;;;;;;;;;;;;19.35;91.81;101816.78;5096712;28;20237;-36
2022/07/21 10:42:58;;;;;;;;;;;;;;;19.37;91.97;101820.91;5095454;28;19923;-36
2022/07/21 10:45:43;;;;;;;;;;;;;;;19.38;92.89;101824.50;5096453;28;19957;-36
2022/07/21 10:48:32;;;;;;;;;;;;;;;19.39;91.60;101826.13;5095567;28;19912;-37
2022/07/21 10:50:58;;;;;;;;;;;;;;;19.43;91.69;101824.53;5085001;28;20425;-36
2022/07/21 10:53:23;;;;;;;;;;;;;;;19.44;90.88;101826.97;5096632;28;19970;-36
2022/07/21 10:55:52;;;;;;;;;;;;;;;19.47;91.70;101831.09;5096215;28;20379;-36
2022/07/21 10:58:25;;;;;;;;;;;;;;;19.43;92.62;101830.00;5096845;28;19912;-36
2022/07/21 11:00:53;;;;;;;;;;;;;;;19.39;92.69;101832.44;5096049;28;20292;-36
2022/07/21 11:03:37;;;;;;;;;;;;;;;19.37;92.25;101828.31;5096781;28;19957;-36
2022/07/21 11:06:06;;;;;;;;;;;;;;;19.33;90.82;101830.78;5095939;28;19923;-36
2022/07/21 11:08:35;;;;;;;;;;;;;;;19.34;92.22;101831.59;5096080;28;20276;-36
2022/07/21 11:11:26;;;;;;;;;;;;;;;19.28;92.16;101823.34;5096128;28;19912;-36
2022/07/21 11:14:04;;;;;;;;;;;;;;;19.25;91.74;101823.03;5091479;28;19912;-36
2022/07/21 11:16:41;;;;;;;;;;;;;;;19.26;90.51;101831.00;5096110;28;20264;-36
2022/07/21 11:19:25;;;;;;;;;;;;;;;19.25;90.42;101837.56;5095512;28;19912;-36
2022/07/21 11:21:50;;;;;;;;;;;;;;;19.27;91.14;101840.88;5095838;28;19911;-36
2022/07/21 11:24:19;;;;;;;;;;;;;;;19.28;90.38;101838.97;5095579;28;19919;-37
2022/07/21 11:26:44;;;;;;;;;;;;;;;19.28;90.73;101839.78;5095003;28;19919;-37
2022/07/21 11:29:09;;;;;;;;;;;;;;;19.28;90.85;101836.22;5095277;28;19912;-37
2022/07/21 11:31:47;;;;;;;;;;;;;;;19.27;91.82;101840.88;5095288;28;19912;-37
2022/07/21 11:34:12;;;;;;;;;;;;;;;19.27;92.62;101843.59;5095390;28;19916;-37
2022/07/21 11:36:38;;;;;;;;;;;;;;;19.22;92.55;101840.81;5096226;28;19919;-37
2022/07/21 11:39:11;;;;;;;;;;;;;;;19.21;91.71;101839.19;5095004;28;19970;-37
2022/07/21 11:41:37;;;;;;;;;;;;;;;19.21;92.56;101847.41;5096127;28;19912;-37
2022/07/21 11:44:03;;;;;;;;;;;;;;;19.18;91.49;101845.22;5095271;28;20360;-37
2022/07/21 11:46:43;;;;;;;;;;;;;;;19.18;92.78;101847.09;5095744;28;19912;-37
2022/07/21 11:49:08;;;;;;;;;;;;;;;19.16;92.70;101860.25;5095641;28;19912;-37
2022/07/21 11:51:34;;;;;;;;;;;;;;;19.15;91.67;101858.63;5095105;28;20357;-37
2022/07/21 11:53:59;;;;;;;;;;;;;;;19.14;92.49;101854.22;5096311;28;19974;-37
2022/07/21 11:56:25;;;;;;;;;;;;;;;19.11;92.29;101852.84;5095632;28;20292;-37
2022/07/21 11:59:07;;;;;;;;;;;;;;;19.09;93.18;101855.03;5093838;28;20369;-37
2022/07/21 12:01:32;;;;;;;;;;;;;;;19.07;93.51;101857.19;5094738;28;19912;-36
2022/07/21 12:03:57;;;;;;;;;;;;;;;19.02;92.89;101862.63;5095094;28;19912;-36
2022/07/21 12:06:23;;;;;;;;;;;;;;;19.02;94.21;101854.41;5094992;28;19912;-36
2022/07/21 12:08:48;;;;;;;;;;;;;;;18.99;93.13;101852.22;5094890;28;19919;-36
2022/07/21 12:11:13;;;;;;;;;;;;;;;18.99;93.77;101855.78;5095486;28;19912;-37
2022/07/21 12:13:58;;;;;;;;;;;;;;;19.00;91.90;101853.84;5095310;28;20345;-36
2022/07/21 12:16:23;;;;;;;;;;;;;;;19.02;93.59;101848.94;5095106;28;19912;-36
2022/07/21 12:19:05;;;;;;;;;;;;;;;19.03;93.86;101853.31;5094888;28;19927;-37
2022/07/21 12:21:42;;;;;;;;;;;;;;;19.06;92.24;101852.78;5094721;28;20002;-37
2022/07/21 12:24:07;;;;;;;;;;;;;;;19.09;93.04;101851.47;5094563;28;19912;-36
2022/07/21 12:26:33;;;;;;;;;;;;;;;19.11;93.53;101855.56;5094284;28;19958;-36
2022/07/21 12:29:00;;;;;;;;;;;;;;;19.12;92.81;101861.88;5094482;28;19957;-37
2022/07/21 12:31:25;;;;;;;;;;;;;;;19.11;92.65;101866.53;5094518;28;20407;-36
2022/07/21 12:33:51;;;;;;;;;;;;;;;19.12;92.20;101862.69;5094652;28;19939;-36
2022/07/21 12:36:19;;;;;;;;;;;;;;;19.14;92.71;101862.47;5094657;28;19913;-36